Time;durP1;ratioP1;P1;durP2;ratioP2;P2;SDS_P1;SDS_P2;PMS_P1;PMS_P2;Temp;Humidity;BMP_temperature;BMP_pressure;BME280_temperature;BME280_humidity;BME280_pressure;Samples;Min_cycle;Max_cycle;Signal;HPM_P1;HPM_P2
2021/01/21 00:02:16;;;;;;;17.90;14.53;;;2.00;99.90;;;;;;5092395;28;20568;-42
2021/01/21 00:04:43;;;;;;;19.63;16.10;;;2.00;99.90;;;;;;5093222;28;20569;-44
2021/01/21 00:07:10;;;;;;;17.47;14.10;;;2.00;99.90;;;;;;5093084;28;20310;-43
2021/01/21 00:09:37;;;;;;;23.70;18.27;;;1.90;99.90;;;;;;5093053;28;20292;-43
2021/01/21 00:12:05;;;;;;;21.50;15.52;;;1.80;99.90;;;;;;5092769;28;20260;-44
2021/01/21 00:14:33;;;;;;;23.03;17.40;;;1.90;99.90;;;;;;5093021;28;20238;-45
2021/01/21 00:17:00;;;;;;;18.48;14.95;;;1.90;99.90;;;;;;5093145;28;20229;-43
2021/01/21 00:19:27;;;;;;;17.10;13.70;;;1.80;99.90;;;;;;5092825;28;20275;-46
2021/01/21 00:21:54;;;;;;;16.67;13.65;;;1.90;99.90;;;;;;5092870;28;20719;-43
2021/01/21 00:24:21;;;;;;;20.00;14.65;;;2.00;99.90;;;;;;5092891;28;20210;-45
2021/01/21 00:26:48;;;;;;;23.15;15.27;;;2.00;99.90;;;;;;5092842;28;20213;-47
2021/01/21 00:29:15;;;;;;;21.33;15.35;;;2.10;99.90;;;;;;5092547;28;20273;-51
2021/01/21 00:31:43;;;;;;;16.10;13.90;;;2.00;99.90;;;;;;5092557;28;20290;-46
2021/01/21 00:34:11;;;;;;;16.60;13.27;;;2.00;99.90;;;;;;5092398;28;20649;-46
2021/01/21 00:36:38;;;;;;;16.33;13.27;;;2.00;99.90;;;;;;5092507;28;20639;-46
2021/01/21 00:39:06;;;;;;;17.97;13.43;;;1.90;99.90;;;;;;5092543;28;20242;-45
2021/01/21 00:41:33;;;;;;;16.77;14.37;;;1.90;99.90;;;;;;5092608;28;20279;-44
2021/01/21 00:44:00;;;;;;;14.57;12.82;;;1.90;99.90;;;;;;5092369;28;20738;-46
2021/01/21 00:46:27;;;;;;;15.05;12.55;;;2.00;99.90;;;;;;5092463;28;20234;-49
2021/01/21 00:48:55;;;;;;;17.08;14.07;;;2.00;99.90;;;;;;5092573;28;20588;-44
2021/01/21 00:51:23;;;;;;;15.07;13.03;;;2.00;99.90;;;;;;5092652;28;20293;-44
2021/01/21 00:53:50;;;;;;;16.15;12.98;;;2.00;99.90;;;;;;5092523;28;20242;-45
2021/01/21 00:56:18;;;;;;;17.50;11.77;;;2.00;99.90;;;;;;5092626;28;20202;-49
2021/01/21 00:58:44;;;;;;;16.05;12.18;;;2.00;99.90;;;;;;5092221;28;20242;-44
2021/01/21 01:01:11;;;;;;;14.95;11.63;;;2.00;99.90;;;;;;5092233;28;20294;-44
2021/01/21 01:03:38;;;;;;;16.58;12.60;;;1.90;99.90;;;;;;5092086;28;20657;-47
2021/01/21 01:06:07;;;;;;;15.23;13.60;;;1.80;99.90;;;;;;5092327;28;20210;-44
2021/01/21 01:08:34;;;;;;;15.25;12.63;;;1.80;99.90;;;;;;5092207;28;20234;-44
2021/01/21 01:11:02;;;;;;;17.48;12.55;;;1.80;99.90;;;;;;5092198;28;20234;-47
2021/01/21 01:13:29;;;;;;;17.05;12.68;;;1.70;99.90;;;;;;5091941;28;20288;-47
2021/01/21 01:15:56;;;;;;;14.85;13.05;;;1.70;99.90;;;;;;5092304;28;20252;-46
2021/01/21 01:18:23;;;;;;;17.27;13.23;;;1.70;99.90;;;;;;5092244;28;20538;-46
2021/01/21 01:20:50;;;;;;;16.67;13.90;;;1.80;99.90;;;;;;5092317;28;20233;-44
2021/01/21 01:23:18;;;;;;;18.92;13.25;;;1.90;99.90;;;;;;5092196;28;20210;-45
2021/01/21 01:25:45;;;;;;;15.80;12.48;;;1.80;99.90;;;;;;5092055;28;20653;-45
2021/01/21 01:28:12;;;;;;;15.77;12.60;;;2.00;99.90;;;;;;5092172;28;20221;-48
2021/01/21 01:30:39;;;;;;;13.70;12.25;;;2.00;99.90;;;;;;5092186;28;20270;-46
2021/01/21 01:33:06;;;;;;;15.82;12.00;;;2.00;99.90;;;;;;5092122;28;20232;-46
2021/01/21 01:35:33;;;;;;;15.20;12.63;;;2.00;99.90;;;;;;5092173;28;20345;-45
2021/01/21 01:38:00;;;;;;;15.15;12.40;;;2.00;99.90;;;;;;5091967;28;20206;-47
2021/01/21 01:40:28;;;;;;;17.25;12.13;;;2.10;99.90;;;;;;5091957;28;20250;-46
2021/01/21 01:42:56;;;;;;;15.38;11.77;;;2.20;99.90;;;;;;5091775;28;20276;-50
2021/01/21 01:45:23;;;;;;;15.45;12.60;;;2.20;99.90;;;;;;5091928;28;20203;-48
2021/01/21 01:47:50;;;;;;;16.38;12.73;;;2.20;99.90;;;;;;5091702;28;20203;-43
2021/01/21 01:50:18;;;;;;;14.55;12.68;;;2.20;99.90;;;;;;5091590;28;20575;-45
2021/01/21 01:52:45;;;;;;;13.87;11.43;;;2.30;99.90;;;;;;5091704;28;20207;-48
2021/01/21 01:55:14;;;;;;;15.88;12.32;;;2.30;99.90;;;;;;5091486;28;20210;-52
2021/01/21 01:57:43;;;;;;;14.50;11.75;;;2.20;99.90;;;;;;5091551;28;20211;-45
2021/01/21 02:00:11;;;;;;;14.02;12.52;;;2.30;99.90;;;;;;5091488;28;20669;-46
2021/01/21 02:02:38;;;;;;;15.25;11.48;;;2.30;99.90;;;;;;5091672;28;20302;-46
2021/01/21 02:05:07;;;;;;;15.43;12.17;;;2.40;99.90;;;;;;5091696;28;20237;-49
2021/01/21 02:07:34;;;;;;;14.15;11.60;;;2.40;99.90;;;;;;5091453;28;20638;-50
2021/01/21 02:10:02;;;;;;;14.57;11.70;;;2.40;99.90;;;;;;5091387;28;20314;-46
2021/01/21 02:12:51;;;;;;;13.80;11.27;;;2.40;99.90;;;;;;5091514;28;20247;-51
2021/01/21 02:15:28;;;;;;;15.63;12.07;;;2.40;99.90;;;;;;5071137;28;20238;-49
2021/01/21 02:18:04;;;;;;;15.65;12.60;;;2.40;99.90;;;;;;5091593;28;20210;-47
2021/01/21 02:21:10;;;;;;;16.05;11.95;;;2.40;99.90;;;;;;5091818;28;20625;-46
2021/01/21 02:24:13;;;;;;;18.77;12.23;;;2.30;99.90;;;;;;5060556;28;20210;-47
2021/01/21 02:26:45;;;;;;;17.13;12.93;;;2.20;99.90;;;;;;5095070;28;20681;-48
2021/01/21 02:29:17;;;;;;;15.43;12.93;;;2.20;99.90;;;;;;5095076;28;20314;-47
2021/01/21 02:32:03;;;;;;;13.90;12.40;;;2.20;99.90;;;;;;5095261;28;20245;-47
2021/01/21 02:34:39;;;;;;;14.65;12.38;;;2.30;99.90;;;;;;5095095;28;20297;-42
2021/01/21 02:37:12;;;;;;;15.87;12.93;;;2.20;99.90;;;;;;5094604;28;20302;-45
2021/01/21 02:39:42;;;;;;;14.23;11.90;;;2.20;99.90;;;;;;5095033;28;20313;-46
2021/01/21 02:42:09;;;;;;;15.27;12.98;;;2.10;99.90;;;;;;5094734;28;20300;-44
2021/01/21 02:44:37;;;;;;;16.58;12.65;;;2.10;99.90;;;;;;5094676;28;20311;-45
2021/01/21 02:47:04;;;;;;;14.18;11.93;;;2.20;99.90;;;;;;5094742;28;20289;-46
2021/01/21 02:49:33;;;;;;;13.07;11.63;;;2.20;99.90;;;;;;5094626;28;20253;-43
2021/01/21 02:52:06;;;;;;;14.30;12.33;;;2.30;99.90;;;;;;5094692;28;20203;-45
2021/01/21 02:54:56;;;;;;;15.63;12.73;;;2.30;99.90;;;;;;5094783;28;20606;-47
2021/01/21 02:57:32;;;;;;;15.05;12.55;;;2.30;99.90;;;;;;5094574;28;20759;-45
2021/01/21 03:00:05;;;;;;;36.28;22.30;;;2.30;99.90;;;;;;5094364;28;20199;-47
2021/01/21 03:02:36;;;;;;;17.27;13.93;;;2.20;99.90;;;;;;5094657;28;20648;-48
2021/01/21 03:05:06;;;;;;;20.33;12.33;;;2.20;99.90;;;;;;5094389;28;20207;-49
2021/01/21 03:07:35;;;;;;;13.65;12.18;;;2.20;99.90;;;;;;5094396;28;20632;-50
2021/01/21 03:10:05;;;;;;;13.05;11.70;;;2.20;99.90;;;;;;5094235;28;20731;-50
2021/01/21 03:12:32;;;;;;;13.40;11.45;;;2.20;99.90;;;;;;5094089;28;20400;-48
2021/01/21 03:15:00;;;;;;;13.48;11.55;;;2.20;99.90;;;;;;5094299;28;20211;-47
2021/01/21 03:17:29;;;;;;;15.63;10.88;;;2.20;99.90;;;;;;5094246;28;20234;-45
2021/01/21 03:19:56;;;;;;;14.05;11.70;;;2.20;99.90;;;;;;5094068;28;20218;-55
2021/01/21 03:22:24;;;;;;;12.60;10.65;;;2.20;99.90;;;;;;5093962;28;20265;-44
2021/01/21 03:24:51;;;;;;;14.65;11.35;;;2.20;99.90;;;;;;5093930;28;20290;-45
2021/01/21 03:27:18;;;;;;;13.57;10.65;;;2.20;99.90;;;;;;5093790;28;20212;-45
2021/01/21 03:29:45;;;;;;;14.90;11.40;;;2.10;99.90;;;;;;5093971;28;20226;-45
2021/01/21 03:32:12;;;;;;;15.10;10.68;;;2.10;99.90;;;;;;5093942;28;20301;-45
2021/01/21 03:34:39;;;;;;;13.80;11.27;;;2.10;99.90;;;;;;5093714;28;20565;-46
2021/01/21 03:37:05;;;;;;;14.70;10.25;;;2.20;99.90;;;;;;5093556;28;20237;-44
2021/01/21 03:39:33;;;;;;;12.80;10.75;;;2.20;99.90;;;;;;5094195;28;20199;-43
2021/01/21 03:42:00;;;;;;;14.05;10.93;;;2.20;99.90;;;;;;5093568;28;20290;-47
2021/01/21 03:44:27;;;;;;;14.85;10.48;;;2.30;99.90;;;;;;5093452;28;20699;-47
2021/01/21 03:46:54;;;;;;;14.05;11.05;;;2.30;99.90;;;;;;5093683;28;20301;-45
2021/01/21 03:49:21;;;;;;;12.77;10.40;;;2.40;99.90;;;;;;5093407;28;20230;-44
2021/01/21 03:51:48;;;;;;;21.33;11.10;;;2.40;99.90;;;;;;5093274;28;20298;-47
2021/01/21 03:54:15;;;;;;;11.52;10.15;;;2.40;99.90;;;;;;5093253;28;20297;-46
2021/01/21 03:56:43;;;;;;;13.63;10.73;;;2.40;99.90;;;;;;5093654;28;20546;-44
2021/01/21 03:59:10;;;;;;;11.33;9.97;;;2.40;99.90;;;;;;5093271;28;20301;-50
2021/01/21 04:01:37;;;;;;;12.60;10.73;;;2.40;99.90;;;;;;5093072;28;20207;-45
2021/01/21 04:04:05;;;;;;;11.37;9.20;;;2.40;99.90;;;;;;5093223;28;20525;-46
2021/01/21 04:06:32;;;;;;;12.18;10.55;;;2.40;99.90;;;;;;5093030;28;20210;-46
2021/01/21 04:08:59;;;;;;;13.30;9.65;;;2.50;99.90;;;;;;5093315;28;20504;-45
2021/01/21 04:11:26;;;;;;;11.82;9.70;;;2.50;99.90;;;;;;5093063;28;20290;-45
2021/01/21 04:13:54;;;;;;;11.45;9.98;;;2.50;99.90;;;;;;5092839;28;20265;-46
2021/01/21 04:16:21;;;;;;;13.10;10.45;;;2.50;99.90;;;;;;5093000;28;20624;-46
2021/01/21 04:18:49;;;;;;;11.90;10.10;;;2.50;99.90;;;;;;5092645;28;20551;-44
2021/01/21 04:21:16;;;;;;;11.80;9.63;;;2.50;99.90;;;;;;5093259;28;20232;-45
2021/01/21 04:23:43;;;;;;;11.37;10.27;;;2.50;99.90;;;;;;5092814;28;20570;-43
2021/01/21 04:26:10;;;;;;;12.77;10.73;;;2.50;99.90;;;;;;5092928;28;20295;-46
2021/01/21 04:28:37;;;;;;;12.20;10.15;;;2.50;99.90;;;;;;5092824;28;20290;-46
2021/01/21 04:31:06;;;;;;;11.20;9.25;;;2.50;99.90;;;;;;5092724;28;20222;-46
2021/01/21 04:33:33;;;;;;;14.83;10.47;;;2.50;99.90;;;;;;5092879;28;20578;-44
2021/01/21 04:36:00;;;;;;;11.70;9.48;;;2.50;99.90;;;;;;5092543;28;20213;-48
2021/01/21 04:38:28;;;;;;;10.83;9.67;;;2.50;99.90;;;;;;5092587;28;20550;-44
2021/01/21 04:40:55;;;;;;;12.23;9.30;;;2.50;99.90;;;;;;5092742;28;20198;-44
2021/01/21 04:43:22;;;;;;;11.68;9.45;;;2.50;99.90;;;;;;5092666;28;20297;-44
2021/01/21 04:45:49;;;;;;;14.53;11.07;;;2.50;99.90;;;;;;5092439;28;20234;-45
2021/01/21 04:48:18;;;;;;;17.87;11.80;;;2.50;99.90;;;;;;5091842;28;20249;-46
2021/01/21 04:50:47;;;;;;;13.97;10.87;;;2.40;99.90;;;;;;5092392;28;20792;-45
2021/01/21 04:53:15;;;;;;;13.65;10.82;;;2.30;99.90;;;;;;5092392;28;20241;-43
2021/01/21 04:55:46;;;;;;;16.73;10.93;;;2.40;99.90;;;;;;5092499;28;20207;-44
2021/01/21 04:58:17;;;;;;;14.30;10.85;;;2.30;99.90;;;;;;5092245;28;20210;-46
2021/01/21 05:00:44;;;;;;;11.70;10.02;;;2.40;99.90;;;;;;5092123;28;20225;-45
2021/01/21 05:03:12;;;;;;;11.83;9.43;;;2.50;99.90;;;;;;5092349;28;20206;-46
2021/01/21 05:05:41;;;;;;;10.38;9.27;;;2.60;99.90;;;;;;5092062;28;20669;-43
2021/01/21 05:08:09;;;;;;;13.43;9.80;;;2.60;99.90;;;;;;5092296;28;20289;-44
2021/01/21 05:10:37;;;;;;;10.87;9.77;;;2.70;99.90;;;;;;5092009;28;20317;-44
2021/01/21 05:13:04;;;;;;;11.63;9.40;;;2.70;99.90;;;;;;5091769;28;20241;-44
2021/01/21 05:15:31;;;;;;;10.80;9.30;;;2.80;99.90;;;;;;5091995;28;20211;-44
2021/01/21 05:17:59;;;;;;;12.07;8.70;;;2.80;99.90;;;;;;5092056;28;20214;-45
2021/01/21 05:20:27;;;;;;;12.32;9.60;;;2.90;99.90;;;;;;5092040;28;20248;-44
2021/01/21 05:22:59;;;;;;;11.70;9.52;;;2.80;99.90;;;;;;5092110;28;20633;-47
2021/01/21 05:25:26;;;;;;;18.98;14.65;;;2.80;99.90;;;;;;5092037;28;20287;-45
2021/01/21 05:27:53;;;;;;;18.47;16.93;;;2.70;99.90;;;;;;5091883;28;20250;-43
2021/01/21 05:30:21;;;;;;;10.27;8.70;;;2.70;99.90;;;;;;5091969;28;20262;-43
2021/01/21 05:32:48;;;;;;;11.15;9.95;;;2.60;99.90;;;;;;5092173;28;20294;-43
2021/01/21 05:35:15;;;;;;;9.70;8.80;;;2.50;99.90;;;;;;5091955;28;20210;-44
2021/01/21 05:37:48;;;;;;;11.23;9.23;;;2.50;99.90;;;;;;5091961;28;20302;-43
2021/01/21 05:40:16;;;;;;;8.77;7.87;;;2.50;99.90;;;;;;5091889;28;20226;-43
2021/01/21 05:42:43;;;;;;;11.15;8.13;;;2.40;99.90;;;;;;5092096;28;20616;-42
2021/01/21 05:45:11;;;;;;;14.13;8.38;;;2.40;99.90;;;;;;5092016;28;20217;-42
2021/01/21 05:47:39;;;;;;;14.05;9.00;;;2.40;99.90;;;;;;5091912;28;20246;-45
2021/01/21 05:50:07;;;;;;;11.60;9.93;;;2.30;99.90;;;;;;5091645;28;20223;-43
2021/01/21 05:52:36;;;;;;;9.60;8.52;;;2.40;99.90;;;;;;5091805;28;20210;-47
2021/01/21 05:55:08;;;;;;;10.73;8.88;;;2.50;99.90;;;;;;5091699;28;20279;-43
2021/01/21 05:57:36;;;;;;;11.27;9.00;;;2.60;99.90;;;;;;5091826;28;20369;-43
2021/01/21 06:00:05;;;;;;;10.53;8.87;;;2.70;99.90;;;;;;5093925;28;20230;-48
2021/01/21 06:02:33;;;;;;;11.77;9.27;;;2.70;99.90;;;;;;5095451;28;20264;-44
2021/01/21 06:05:00;;;;;;;11.10;8.70;;;2.80;99.90;;;;;;5095505;28;20210;-44
2021/01/21 06:07:31;;;;;;;10.47;8.37;;;2.90;99.90;;;;;;5095370;28;20234;-48
2021/01/21 06:09:58;;;;;;;9.73;7.93;;;2.90;99.90;;;;;;5095595;28;20301;-43
2021/01/21 06:12:29;;;;;;;12.20;8.30;;;2.90;99.90;;;;;;5095497;28;20242;-45
2021/01/21 06:15:01;;;;;;;11.63;8.68;;;3.00;99.90;;;;;;5095592;28;20211;-44
2021/01/21 06:17:28;;;;;;;10.23;8.17;;;3.00;99.90;;;;;;5095346;28;20241;-44
2021/01/21 06:19:56;;;;;;;9.38;7.50;;;2.90;99.90;;;;;;5095275;28;20199;-44
2021/01/21 06:22:25;;;;;;;8.80;7.90;;;2.90;99.90;;;;;;5095182;28;20669;-47
2021/01/21 06:24:57;;;;;;;9.45;8.13;;;3.00;99.90;;;;;;5095242;28;20207;-44
2021/01/21 06:27:27;;;;;;;9.07;8.13;;;3.10;99.90;;;;;;5095356;28;20264;-43
2021/01/21 06:29:57;;;;;;;15.43;11.32;;;3.20;99.90;;;;;;5094833;28;20254;-45
2021/01/21 06:32:33;;;;;;;24.75;14.60;;;3.30;99.90;;;;;;5094519;28;20673;-49
2021/01/21 06:35:05;;;;;;;7.97;6.47;;;3.40;99.90;;;;;;5095148;28;20241;-43
2021/01/21 06:37:36;;;;;;;10.68;7.95;;;3.40;99.90;;;;;;5095007;28;20242;-46
2021/01/21 06:40:08;;;;;;;17.10;11.15;;;3.40;99.90;;;;;;5094862;28;20199;-43
2021/01/21 06:42:37;;;;;;;11.75;9.20;;;3.40;99.90;;;;;;5094776;28;20217;-42
2021/01/21 06:45:06;;;;;;;12.25;8.95;;;3.40;99.90;;;;;;5094907;28;20260;-44
2021/01/21 06:47:35;;;;;;;11.23;8.68;;;3.40;99.90;;;;;;5094841;28;20214;-42
2021/01/21 06:50:05;;;;;;;13.90;10.18;;;3.40;99.90;;;;;;5094677;28;20287;-43
2021/01/21 06:52:36;;;;;;;10.02;8.32;;;3.40;99.90;;;;;;5094953;28;20648;-43
2021/01/21 06:55:08;;;;;;;10.57;8.52;;;3.40;99.90;;;;;;5094480;28;20298;-44
2021/01/21 06:57:45;;;;;;;46.00;22.83;;;3.30;99.90;;;;;;5094334;28;20207;-45
2021/01/21 07:00:17;;;;;;;17.15;12.88;;;3.30;99.90;;;;;;5094325;28;20203;-45
2021/01/21 07:02:50;;;;;;;31.25;19.25;;;3.40;99.90;;;;;;5094308;28;20218;-44
2021/01/21 07:05:20;;;;;;;18.87;15.93;;;3.40;99.90;;;;;;5094191;28;20579;-44
2021/01/21 07:08:01;;;;;;;10.45;9.13;;;3.50;99.90;;;;;;5094007;28;20630;-44
2021/01/21 07:10:34;;;;;;;11.10;8.30;;;3.60;99.90;;;;;;5093384;28;20226;-45
2021/01/21 07:13:04;;;;;;;11.02;8.68;;;3.70;99.90;;;;;;5094120;28;20238;-47
2021/01/21 07:15:36;;;;;;;16.38;11.60;;;3.70;99.90;;;;;;5094146;28;20245;-44
2021/01/21 07:18:12;;;;;;;11.88;10.73;;;3.80;99.80;;;;;;5093887;28;20615;-48
2021/01/21 07:21:13;;;;;;;16.73;14.13;;;3.80;99.80;;;;;;5094217;28;20281;-45
2021/01/21 07:23:43;;;;;;;9.82;8.82;;;3.80;99.90;;;;;;5093936;28;20776;-46
2021/01/21 07:26:30;;;;;;;16.23;8.95;;;3.70;99.90;;;;;;5094275;28;20214;-50
2021/01/21 07:29:10;;;;;;;12.45;7.85;;;3.60;99.90;;;;;;5094223;28;20210;-47
2021/01/21 07:32:08;;;;;;;27.30;18.58;;;3.60;99.90;;;;;;5094405;28;20238;-48
2021/01/21 07:34:45;;;;;;;18.17;14.55;;;3.50;99.90;;;;;;5071203;28;20206;-45
2021/01/21 07:37:22;;;;;;;19.63;13.10;;;3.60;99.90;;;;;;5093674;28;20300;-48
2021/01/21 07:39:51;;;;;;;41.13;30.73;;;3.60;99.90;;;;;;5093981;28;20214;-46
2021/01/21 07:42:19;;;;;;;16.02;12.35;;;3.70;99.90;;;;;;5093782;28;20702;-45
2021/01/21 07:44:54;;;;;;;14.93;11.40;;;3.70;99.90;;;;;;5093616;28;20214;-44
2021/01/21 07:47:27;;;;;;;12.35;10.10;;;3.80;99.90;;;;;;5093208;28;20290;-45
2021/01/21 07:50:29;;;;;;;19.80;14.18;;;3.90;99.90;;;;;;5093682;28;20210;-46
2021/01/21 07:52:59;;;;;;;14.00;10.45;;;3.90;99.90;;;;;;5091108;28;20751;-44
2021/01/21 07:55:27;;;;;;;10.35;8.48;;;4.00;99.80;;;;;;5093489;28;20448;-45
2021/01/21 07:57:54;;;;;;;15.95;11.80;;;4.00;99.70;;;;;;5093629;28;20263;-44
2021/01/21 08:00:22;;;;;;;12.70;11.40;;;4.10;99.70;;;;;;5093494;28;20207;-44
2021/01/21 08:02:50;;;;;;;13.38;12.07;;;4.10;99.50;;;;;;5093399;28;20202;-44
2021/01/21 08:05:20;;;;;;;12.75;10.15;;;4.30;99.50;;;;;;5093214;28;20743;-44
2021/01/21 08:07:48;;;;;;;22.13;15.98;;;4.40;99.30;;;;;;5093287;28;20548;-46
2021/01/21 08:10:19;;;;;;;29.65;20.55;;;4.40;99.20;;;;;;5092857;28;20255;-46
2021/01/21 08:12:52;;;;;;;17.97;11.93;;;4.50;99.10;;;;;;5092857;28;20381;-45
2021/01/21 08:15:20;;;;;;;10.50;8.00;;;4.60;99.10;;;;;;5093198;28;20310;-47
2021/01/21 08:17:49;;;;;;;11.45;9.80;;;4.50;99.10;;;;;;5092954;28;20293;-46
2021/01/21 08:20:17;;;;;;;16.08;11.65;;;4.40;99.20;;;;;;5092829;28;20202;-42
2021/01/21 08:22:59;;;;;;;15.35;11.23;;;4.50;99.20;;;;;;5092014;28;20253;-43
2021/01/21 08:25:29;;;;;;;17.20;11.63;;;4.50;99.20;;;;;;5092960;28;20210;-42
2021/01/21 08:27:57;;;;;;;31.05;21.70;;;4.60;99.20;;;;;;5092686;28;20627;-44
2021/01/21 08:30:25;;;;;;;22.67;15.75;;;4.70;99.20;;;;;;5092714;28;20321;-42
2021/01/21 08:32:58;;;;;;;31.98;19.48;;;4.80;99.00;;;;;;5092667;28;20210;-43
2021/01/21 08:35:30;;;;;;;23.50;15.02;;;5.00;98.80;;;;;;5092501;28;20202;-43
2021/01/21 08:37:59;;;;;;;20.15;13.02;;;5.20;98.60;;;;;;5092597;28;20515;-44
2021/01/21 08:40:28;;;;;;;31.00;20.98;;;5.40;98.40;;;;;;5092556;28;20569;-45
2021/01/21 08:42:56;;;;;;;14.82;11.73;;;5.50;98.20;;;;;;5092497;28;20242;-48
2021/01/21 08:45:28;;;;;;;11.60;8.93;;;5.50;98.00;;;;;;5092297;28;20203;-47
2021/01/21 08:47:55;;;;;;;14.57;11.43;;;5.60;98.00;;;;;;5092168;28;20210;-48
2021/01/21 08:50:23;;;;;;;25.13;17.67;;;5.60;97.90;;;;;;5092370;28;20226;-51
2021/01/21 08:53:00;;;;;;;27.52;22.60;;;5.70;97.90;;;;;;5092403;28;20215;-47
2021/01/21 08:55:39;;;;;;;47.58;29.95;;;5.70;97.80;;;;;;5092043;28;20202;-47
2021/01/21 08:58:07;;;;;;;37.13;26.10;;;5.70;97.80;;;;;;5092102;28;20244;-43
2021/01/21 09:00:36;;;;;;;9.15;8.10;;;5.70;97.90;;;;;;5092168;28;20233;-45
2021/01/21 09:03:04;;;;;;;11.60;9.35;;;5.70;97.90;;;;;;5092212;28;20206;-42
2021/01/21 09:05:32;;;;;;;12.93;11.35;;;5.70;97.90;;;;;;5092220;28;20719;-44
2021/01/21 09:08:04;;;;;;;10.50;9.40;;;5.80;98.00;;;;;;5092198;28;20203;-43
2021/01/21 09:10:46;;;;;;;12.27;10.43;;;5.80;97.70;;;;;;5092008;28;20309;-43
2021/01/21 09:13:19;;;;;;;11.43;7.90;;;5.80;97.70;;;;;;5091853;28;20355;-45
2021/01/21 09:15:54;;;;;;;12.63;10.05;;;5.90;97.70;;;;;;5092209;28;20242;-43
2021/01/21 09:18:22;;;;;;;13.15;10.38;;;6.00;97.60;;;;;;5092182;28;20255;-47
2021/01/21 09:20:50;;;;;;;12.23;10.95;;;6.10;97.60;;;;;;5091952;28;20728;-43
2021/01/21 09:23:20;;;;;;;12.38;10.70;;;6.10;97.40;;;;;;5091837;28;20575;-45
2021/01/21 09:25:49;;;;;;;13.40;10.65;;;6.20;97.30;;;;;;5092241;28;20723;-45
2021/01/21 09:28:17;;;;;;;12.95;9.90;;;6.40;97.20;;;;;;5091986;28;20253;-46
2021/01/21 09:30:44;;;;;;;8.90;6.22;;;6.50;97.00;;;;;;5091983;28;20309;-44
2021/01/21 09:33:11;;;;;;;12.52;6.55;;;6.70;96.80;;;;;;5092663;28;20770;-50
2021/01/21 09:35:41;;;;;;;12.27;8.57;;;6.90;96.60;;;;;;5096005;28;20210;-45
2021/01/21 09:38:08;;;;;;;8.45;7.55;;;7.10;96.20;;;;;;5096265;28;20206;-51
2021/01/21 09:40:35;;;;;;;7.53;6.25;;;7.30;96.00;;;;;;5096126;28;20241;-45
2021/01/21 09:43:05;;;;;;;7.25;6.53;;;7.40;95.70;;;;;;5096001;28;20290;-45
2021/01/21 09:45:33;;;;;;;7.93;5.97;;;7.50;95.60;;;;;;5095975;28;20234;-43
2021/01/21 09:48:01;;;;;;;7.85;6.43;;;7.60;95.50;;;;;;5095857;28;20352;-47
2021/01/21 09:50:29;;;;;;;6.82;6.13;;;7.70;95.30;;;;;;5095487;28;20222;-45
2021/01/21 09:52:56;;;;;;;9.75;6.82;;;7.70;95.20;;;;;;5095850;28;20294;-46
2021/01/21 09:55:23;;;;;;;8.25;6.57;;;7.80;95.10;;;;;;5095811;28;20294;-46
2021/01/21 09:57:50;;;;;;;9.23;6.40;;;7.80;95.00;;;;;;5095666;28;20581;-48
2021/01/21 10:00:20;;;;;;;7.05;5.22;;;7.80;95.00;;;;;;5095532;28;20255;-46
2021/01/21 10:02:47;;;;;;;7.88;6.13;;;7.90;94.90;;;;;;5095535;28;20287;-47
2021/01/21 10:05:14;;;;;;;6.90;5.60;;;7.90;94.80;;;;;;5095626;28;20349;-46
2021/01/21 10:07:41;;;;;;;9.18;6.20;;;8.00;94.80;;;;;;5095183;28;20572;-44
2021/01/21 10:10:09;;;;;;;6.75;5.60;;;8.10;94.60;;;;;;5095204;28;20207;-48
2021/01/21 10:12:37;;;;;;;7.25;5.65;;;8.30;94.40;;;;;;5095039;28;20606;-49
2021/01/21 10:15:06;;;;;;;9.32;7.18;;;8.50;94.20;;;;;;5095143;28;20661;-52
2021/01/21 10:17:34;;;;;;;10.85;6.60;;;8.60;93.90;;;;;;5094786;28;20218;-53
2021/01/21 10:20:01;;;;;;;8.63;6.05;;;8.80;93.70;;;;;;5094857;28;20638;-49
2021/01/21 10:22:28;;;;;;;6.78;5.05;;;9.00;93.40;;;;;;5095029;28;20242;-47
2021/01/21 10:24:55;;;;;;;7.50;5.60;;;9.20;93.00;;;;;;5095129;28;20416;-51
2021/01/21 10:27:27;;;;;;;8.52;4.50;;;9.40;92.70;;;;;;5094922;28;20298;-50
2021/01/21 10:29:54;;;;;;;4.75;3.40;;;9.50;92.70;;;;;;5094693;28;20207;-50
2021/01/21 10:32:31;;;;;;;5.60;3.75;;;9.60;92.30;;;;;;5094802;28;20210;-50
2021/01/21 10:34:59;;;;;;;8.52;3.55;;;9.60;92.20;;;;;;5094937;28;20210;-47
2021/01/21 10:37:26;;;;;;;5.18;3.50;;;9.60;92.10;;;;;;5094973;28;20289;-52
2021/01/21 10:39:56;;;;;;;5.75;3.17;;;9.50;92.00;;;;;;5094838;28;20210;-53
2021/01/21 10:42:23;;;;;;;3.20;2.60;;;9.40;92.20;;;;;;5094727;28;20199;-47
2021/01/21 10:44:50;;;;;;;4.18;2.88;;;9.30;92.10;;;;;;5093780;28;20240;-49
2021/01/21 10:47:17;;;;;;;6.50;4.47;;;9.20;92.40;;;;;;5094862;28;20211;-52
2021/01/21 10:49:44;;;;;;;9.18;4.13;;;9.10;92.50;;;;;;5094668;28;20531;-50
2021/01/21 10:52:12;;;;;;;4.50;3.85;;;9.00;92.70;;;;;;5094490;28;20271;-47
2021/01/21 10:54:39;;;;;;;6.63;3.20;;;9.00;92.60;;;;;;5094661;28;20293;-51
2021/01/21 10:57:06;;;;;;;9.82;4.05;;;9.10;92.60;;;;;;5094315;28;20309;-48
2021/01/21 10:59:33;;;;;;;7.45;3.58;;;9.20;92.50;;;;;;5094491;28;20295;-50
2021/01/21 11:02:00;;;;;;;3.40;2.42;;;9.30;92.20;;;;;;5094611;28;20218;-49
2021/01/21 11:04:29;;;;;;;4.80;3.03;;;9.50;92.00;;;;;;5094382;28;20264;-48
2021/01/21 11:06:56;;;;;;;3.38;2.88;;;9.80;91.40;;;;;;5094395;28;20206;-48
2021/01/21 11:09:35;;;;;;;3.00;2.63;;;10.00;90.90;;;;;;5094245;28;20242;-50
2021/01/21 11:12:03;;;;;;;5.60;3.08;;;10.10;90.60;;;;;;5093961;28;20776;-47
2021/01/21 11:14:31;;;;;;;9.88;3.03;;;10.40;90.40;;;;;;5094474;28;20286;-47
2021/01/21 11:16:58;;;;;;;3.67;3.38;;;10.50;90.10;;;;;;5094077;28;20723;-46
2021/01/21 11:19:25;;;;;;;4.40;2.50;;;10.70;89.50;;;;;;5094148;28;20211;-48
2021/01/21 11:21:53;;;;;;;5.05;2.40;;;10.80;88.70;;;;;;5093951;28;20283;-47
2021/01/21 11:24:20;;;;;;;4.55;2.53;;;10.80;88.40;;;;;;5094233;28;20211;-47
2021/01/21 11:26:48;;;;;;;2.58;2.20;;;10.90;88.00;;;;;;5093804;28;20242;-47
2021/01/21 11:29:15;;;;;;;4.03;2.65;;;11.00;87.10;;;;;;5093843;28;20256;-48
2021/01/21 11:31:42;;;;;;;4.95;2.33;;;11.10;86.40;;;;;;5093751;28;20250;-44
2021/01/21 11:34:09;;;;;;;3.58;2.20;;;11.10;86.10;;;;;;5093815;28;20236;-49
2021/01/21 11:36:36;;;;;;;5.82;2.72;;;11.00;85.50;;;;;;5093894;28;20253;-48
2021/01/21 11:39:03;;;;;;;4.35;2.58;;;11.00;85.20;;;;;;5093954;28;20272;-47
2021/01/21 11:41:30;;;;;;;5.38;2.42;;;11.00;85.30;;;;;;5093797;28;20747;-48
2021/01/21 11:43:58;;;;;;;4.43;2.00;;;10.90;85.00;;;;;;5093915;28;20237;-48
2021/01/21 11:46:26;;;;;;;4.55;2.00;;;11.00;85.10;;;;;;5093957;28;20252;-47
2021/01/21 11:48:53;;;;;;;3.33;1.42;;;11.00;84.20;;;;;;5093689;28;20576;-45
2021/01/21 11:51:20;;;;;;;2.53;1.70;;;11.00;83.20;;;;;;5093776;28;20988;-48
2021/01/21 11:53:47;;;;;;;2.80;1.60;;;11.00;83.10;;;;;;5093861;28;20306;-48
2021/01/21 11:56:14;;;;;;;2.38;1.45;;;11.20;82.40;;;;;;5093763;28;20207;-45
2021/01/21 11:58:45;;;;;;;1.95;1.45;;;11.20;82.10;;;;;;5094009;28;20273;-44
2021/01/21 12:01:13;;;;;;;2.72;1.55;;;11.20;81.50;;;;;;5093458;28;20206;-49
2021/01/21 12:03:40;;;;;;;4.05;1.67;;;11.20;81.00;;;;;;5093355;28;20215;-46
2021/01/21 12:06:08;;;;;;;2.65;1.67;;;11.10;81.20;;;;;;5093524;28;20211;-48
2021/01/21 12:08:35;;;;;;;1.90;1.63;;;11.20;81.40;;;;;;5093732;28;20302;-48
2021/01/21 12:11:02;;;;;;;4.95;1.27;;;11.20;81.00;;;;;;5093427;28;20241;-43
2021/01/21 12:13:29;;;;;;;4.15;1.80;;;11.20;81.00;;;;;;5093286;28;20244;-43
2021/01/21 12:15:59;;;;;;;3.00;1.45;;;11.20;80.70;;;;;;5093151;28;20631;-44
2021/01/21 12:18:27;;;;;;;2.95;1.80;;;11.20;80.70;;;;;;5092977;28;20203;-41
2021/01/21 12:20:54;;;;;;;2.22;1.50;;;11.30;80.60;;;;;;5093153;28;20252;-41
2021/01/21 12:23:21;;;;;;;1.90;1.50;;;11.30;80.60;;;;;;5093282;28;20210;-42
2021/01/21 12:25:49;;;;;;;4.80;2.60;;;11.30;80.20;;;;;;5093030;28;20301;-47
2021/01/21 12:28:16;;;;;;;4.50;2.25;;;11.30;80.20;;;;;;5092929;28;20310;-49
2021/01/21 12:30:43;;;;;;;5.35;1.50;;;11.30;80.20;;;;;;5092758;28;20227;-46
2021/01/21 12:33:10;;;;;;;2.75;1.95;;;11.30;79.30;;;;;;5092992;28;20306;-44
2021/01/21 12:35:38;;;;;;;4.10;1.88;;;11.30;79.60;;;;;;5092865;28;20203;-48
2021/01/21 12:38:05;;;;;;;5.93;3.70;;;11.20;79.50;;;;;;5093298;28;20202;-48
2021/01/21 12:40:32;;;;;;;2.80;2.00;;;11.20;79.80;;;;;;5092502;28;20297;-49
2021/01/21 12:42:59;;;;;;;1.42;1.33;;;11.20;79.40;;;;;;5092582;28;20619;-47
2021/01/21 12:45:26;;;;;;;2.97;1.83;;;11.20;79.20;;;;;;5092846;28;20293;-48
2021/01/21 12:47:53;;;;;;;6.18;1.95;;;11.20;79.40;;;;;;5092432;28;20735;-49
2021/01/21 12:50:20;;;;;;;13.57;6.57;;;11.30;79.30;;;;;;5092741;28;20207;-44
2021/01/21 12:52:48;;;;;;;1.70;1.58;;;11.30;78.90;;;;;;5091924;28;20725;-45
2021/01/21 12:55:15;;;;;;;3.22;1.77;;;11.30;78.70;;;;;;5092357;28;20234;-44